Terminal Aerodrome Forecast
Issued by NWS Austin/San Antonio, TX

Home | Current Version | Previous Version | Text Only | Print | Product List | Glossary On
Versions: 1 2 3 4 5 6 7 8 9 10 11 12 13 14 15 16 17 18 19 20 21 22 23 24 25 26 27 28 29 30 31 32 33 34
000
FTUS44 KEWX 242347
TAFAUS
TAF
KAUS 242347Z 2500/2606 16012KT P6SM SCT030 BKN035
     FM250500 16010KT 6SM BR OVC015
     FM250700 16010KT 4SM BR OVC007
     FM251600 17010KT P6SM BKN015
      TEMPO 2516/2520 4SM TSRA BR BKN015CB
     FM252000 17015G30KT 6SM TSRA BKN035CB
     FM260100 17010KT P6SM BKN035=

USA.gov is the U.S. government's official web portal to all federal, state and local government web resources and services.